createdAt,value
2023-03-17T00:01:53.874Z,2.30
2023-03-17T00:04:21.830Z,3.00
2023-03-17T00:06:49.098Z,4.30
2023-03-17T00:09:19.398Z,3.20
2023-03-17T00:11:47.427Z,2.50
2023-03-17T00:14:17.111Z,2.60
2023-03-17T00:16:46.107Z,3.60
2023-03-17T00:19:23.771Z,3.20
2023-03-17T00:21:52.585Z,4.60
2023-03-17T00:24:19.650Z,2.80
2023-03-17T00:26:46.654Z,2.70
2023-03-17T00:29:13.400Z,2.40
2023-03-17T00:31:40.496Z,2.40
2023-03-17T00:34:16.100Z,3.30
2023-03-17T00:36:43.959Z,2.30
2023-03-17T00:41:39.940Z,3.80
2023-03-17T00:44:06.656Z,3.70
2023-03-17T00:46:37.554Z,3.80
2023-03-17T00:49:19.068Z,1.50
2023-03-17T00:51:46.507Z,2.90
2023-03-17T00:54:15.255Z,3.00
2023-03-17T00:56:42.084Z,1.80
2023-03-17T00:59:34.797Z,2.60
2023-03-17T01:02:01.473Z,1.60
2023-03-17T01:04:29.035Z,3.00
2023-03-17T01:06:57.920Z,2.70
2023-03-17T01:09:25.660Z,2.80
2023-03-17T01:11:52.463Z,3.70
2023-03-17T01:14:19.050Z,2.60
2023-03-17T01:16:47.111Z,1.90
2023-03-17T01:19:14.779Z,3.20
2023-03-17T01:21:41.982Z,4.50
2023-03-17T01:24:08.897Z,2.10
2023-03-17T01:26:35.938Z,2.10
2023-03-17T01:29:04.291Z,1.70
2023-03-17T01:31:30.989Z,2.10
2023-03-17T01:34:05.647Z,4.20
2023-03-17T01:36:32.327Z,1.10
2023-03-17T01:38:59.950Z,1.50
2023-03-17T01:41:26.740Z,1.90
2023-03-17T01:43:53.965Z,2.90
2023-03-17T01:46:32.110Z,2.80
2023-03-17T01:49:06.222Z,2.00
2023-03-17T01:51:40.367Z,1.50
2023-03-17T01:54:16.547Z,3.80
2023-03-17T01:56:45.061Z,1.60
2023-03-17T01:59:16.053Z,1.50
2023-03-17T02:01:44.532Z,2.50
2023-03-17T02:04:11.540Z,2.40
2023-03-17T02:06:55.095Z,2.30
2023-03-17T02:09:28.705Z,2.50
2023-03-17T02:11:56.344Z,1.20
2023-03-17T02:14:23.368Z,1.90
2023-03-17T02:16:50.869Z,1.90
2023-03-17T02:19:18.776Z,1.90
2023-03-17T02:21:47.043Z,1.30
2023-03-17T02:24:27.621Z,1.80
2023-03-17T02:26:56.412Z,2.50
2023-03-17T02:31:57.478Z,1.70
2023-03-17T02:34:24.119Z,2.40
2023-03-17T02:36:52.638Z,2.90
2023-03-17T02:39:19.412Z,2.80
2023-03-17T02:41:49.436Z,2.80
2023-03-17T02:44:16.506Z,1.20
2023-03-17T02:46:43.636Z,2.20
2023-03-17T02:49:11.325Z,3.00
2023-03-17T02:51:38.284Z,2.20
2023-03-17T02:54:05.250Z,2.00
2023-03-17T02:56:32.638Z,2.10
2023-03-17T02:59:01.958Z,3.10
2023-03-17T03:01:30.181Z,4.30
2023-03-17T03:03:57.666Z,3.90
2023-03-17T03:06:24.339Z,4.00
2023-03-17T03:08:51.178Z,2.50
2023-03-17T03:11:18.690Z,3.50
2023-03-17T03:13:46.022Z,4.40
2023-03-17T03:16:12.695Z,4.90
2023-03-17T03:18:40.785Z,5.90
2023-03-17T03:21:09.024Z,3.00
2023-03-17T03:23:35.615Z,2.30
2023-03-17T03:26:07.196Z,1.90
2023-03-17T03:28:35.835Z,2.80
2023-03-17T03:31:03.104Z,2.40
2023-03-17T03:33:31.179Z,2.20
2023-03-17T03:35:58.661Z,4.40
2023-03-17T03:38:26.879Z,3.00
2023-03-17T03:40:53.848Z,2.00
2023-03-17T03:43:23.736Z,1.40
2023-03-17T03:45:51.391Z,2.60
2023-03-17T03:48:18.357Z,1.70
2023-03-17T03:50:46.232Z,2.90
2023-03-17T03:53:14.716Z,1.90
2023-03-17T03:55:42.249Z,1.30
2023-03-17T03:58:12.109Z,1.70
2023-03-17T04:00:38.624Z,1.60
2023-03-17T04:03:06.121Z,2.40
2023-03-17T04:05:32.963Z,3.00
2023-03-17T04:08:01.729Z,4.00
2023-03-17T04:10:28.994Z,2.10
2023-03-17T04:12:55.863Z,2.50
2023-03-17T04:15:24.663Z,2.20
2023-03-17T04:17:51.434Z,2.80
2023-03-17T04:20:18.216Z,3.20
2023-03-17T04:22:46.491Z,3.60
2023-03-17T04:25:13.840Z,2.40
2023-03-17T04:27:41.845Z,3.20
2023-03-17T04:30:13.177Z,3.60
2023-03-17T04:32:41.152Z,6.00
2023-03-17T04:35:11.231Z,8.90
2023-03-17T04:37:38.693Z,13.00
2023-03-17T04:40:10.729Z,12.50
2023-03-17T04:42:38.595Z,14.40
2023-03-17T04:45:06.166Z,16.80
2023-03-17T04:47:33.932Z,14.70
2023-03-17T04:50:01.558Z,7.30
2023-03-17T04:52:28.520Z,7.80
2023-03-17T04:54:56.268Z,5.90
2023-03-17T04:57:24.342Z,5.20
2023-03-17T04:59:51.151Z,5.10
2023-03-17T05:02:18.253Z,3.90
2023-03-17T05:04:52.915Z,3.60
2023-03-17T05:07:20.276Z,2.80
2023-03-17T05:09:47.558Z,4.90
2023-03-17T05:12:15.932Z,3.50
2023-03-17T05:14:42.502Z,2.80
2023-03-17T05:17:10.348Z,3.60
2023-03-17T05:19:38.978Z,6.20
2023-03-17T05:22:05.998Z,2.60
2023-03-17T05:24:32.858Z,3.00
2023-03-17T05:27:00.439Z,2.80
2023-03-17T05:29:27.195Z,2.60
2023-03-17T05:31:54.145Z,3.80
2023-03-17T05:34:20.747Z,2.80
2023-03-17T05:36:47.405Z,2.90
2023-03-17T05:39:14.853Z,2.60
2023-03-17T05:41:42.040Z,4.10
2023-03-17T05:44:13.881Z,3.90
2023-03-17T05:46:43.440Z,4.50
2023-03-17T05:49:10.164Z,4.20
2023-03-17T05:51:38.983Z,3.40
2023-03-17T05:54:05.501Z,4.50
2023-03-17T05:56:34.124Z,3.30
2023-03-17T05:59:01.103Z,1.40
2023-03-17T06:01:31.898Z,3.20
2023-03-17T06:04:01.259Z,5.20
2023-03-17T06:06:28.215Z,3.80
2023-03-17T06:08:55.595Z,3.90
2023-03-17T06:11:22.267Z,4.10
2023-03-17T06:13:51.011Z,1.70
2023-03-17T06:16:17.735Z,2.50
2023-03-17T06:18:45.644Z,2.60
2023-03-17T06:21:12.944Z,3.80
2023-03-17T06:23:45.663Z,2.70
2023-03-17T06:26:18.177Z,3.00
2023-03-17T06:28:46.307Z,4.70
2023-03-17T06:31:13.065Z,3.20
2023-03-17T06:33:39.944Z,1.90
2023-03-17T06:36:07.550Z,2.00
2023-03-17T06:38:34.381Z,2.30
2023-03-17T06:41:01.849Z,3.20
2023-03-17T06:43:31.472Z,5.20
2023-03-17T06:46:06.603Z,4.10
2023-03-17T06:48:34.657Z,3.60
2023-03-17T06:51:02.022Z,2.70
2023-03-17T06:53:28.889Z,4.60
2023-03-17T06:55:55.757Z,4.80
2023-03-17T06:58:23.263Z,6.70
2023-03-17T07:00:53.438Z,21.90
2023-03-17T07:03:21.861Z,8.60
2023-03-17T07:05:49.440Z,6.00
2023-03-17T07:08:17.307Z,5.80
2023-03-17T07:10:45.316Z,5.40
2023-03-17T07:13:14.171Z,4.80
2023-03-17T07:15:41.338Z,3.70
2023-03-17T07:18:09.262Z,3.30
2023-03-17T07:20:37.620Z,3.50
2023-03-17T07:23:04.538Z,6.30
2023-03-17T07:25:32.081Z,2.90
2023-03-17T07:27:59.202Z,3.20
2023-03-17T07:30:28.004Z,4.30
2023-03-17T07:32:54.949Z,5.00
2023-03-17T07:35:22.863Z,4.10
2023-03-17T07:37:49.913Z,3.40
2023-03-17T07:40:18.197Z,3.40
2023-03-17T07:42:49.308Z,2.90
2023-03-17T07:45:16.162Z,3.60
2023-03-17T07:47:43.005Z,3.20
2023-03-17T07:50:10.462Z,3.80
2023-03-17T07:55:11.953Z,3.90
2023-03-17T07:57:39.118Z,3.40
2023-03-17T08:00:10.037Z,4.80
2023-03-17T08:05:08.022Z,4.40
2023-03-17T08:07:37.158Z,3.60
2023-03-17T08:10:05.390Z,2.90
2023-03-17T08:12:32.712Z,2.50
2023-03-17T08:15:03.338Z,8.00
2023-03-17T08:17:31.480Z,4.30
2023-03-17T08:19:59.848Z,3.90
2023-03-17T08:22:32.964Z,4.00
2023-03-17T08:24:59.915Z,4.00
2023-03-17T08:27:26.845Z,3.20
2023-03-17T08:29:58.462Z,2.70
2023-03-17T08:32:26.400Z,4.50
2023-03-17T08:34:58.344Z,7.10
2023-03-17T08:37:26.420Z,5.00
2023-03-17T08:39:53.760Z,4.20
2023-03-17T08:42:21.037Z,4.70
2023-03-17T08:44:49.049Z,3.30
2023-03-17T08:47:25.265Z,2.20
2023-03-17T08:49:52.898Z,2.80
2023-03-17T08:52:20.012Z,3.90
2023-03-17T08:54:46.909Z,5.00
2023-03-17T08:57:15.686Z,3.20
2023-03-17T08:59:43.150Z,4.80
2023-03-17T09:02:14.314Z,5.30
2023-03-17T09:04:41.149Z,4.90
2023-03-17T09:07:10.045Z,4.30
2023-03-17T09:09:37.093Z,5.00
2023-03-17T09:12:05.563Z,6.10
2023-03-17T09:14:42.744Z,5.50
2023-03-17T09:17:10.813Z,6.50
2023-03-17T09:19:38.176Z,11.90
2023-03-17T09:22:05.428Z,9.50
2023-03-17T09:24:33.017Z,5.70
2023-03-17T09:27:05.723Z,5.20
2023-03-17T09:29:33.571Z,7.50
2023-03-17T09:32:01.003Z,5.40
2023-03-17T09:34:29.203Z,5.10
2023-03-17T09:36:56.534Z,6.30
2023-03-17T09:39:23.920Z,4.60
2023-03-17T09:41:58.239Z,4.30
2023-03-17T09:44:41.150Z,5.30
2023-03-17T09:47:17.764Z,4.60
2023-03-17T09:49:48.054Z,5.70
2023-03-17T09:52:18.920Z,4.80
2023-03-17T09:54:49.581Z,5.80
2023-03-17T09:57:20.655Z,4.70
2023-03-17T09:59:50.229Z,3.70
2023-03-17T10:02:27.966Z,3.40
2023-03-17T10:04:55.474Z,4.10
2023-03-17T10:07:39.131Z,5.30
2023-03-17T10:10:20.955Z,3.30
2023-03-17T10:13:07.926Z,2.60
2023-03-17T10:15:40.536Z,3.20
2023-03-17T10:18:09.605Z,4.80
2023-03-17T10:20:38.993Z,2.40
2023-03-17T10:23:06.957Z,3.70
2023-03-17T10:25:35.547Z,3.10
2023-03-17T10:28:23.028Z,4.80
2023-03-17T10:30:50.935Z,4.90
2023-03-17T10:33:18.160Z,4.30
2023-03-17T10:35:46.277Z,2.90
2023-03-17T10:38:20.363Z,5.80
2023-03-17T10:40:59.589Z,6.60
2023-03-17T10:43:30.526Z,3.90
2023-03-17T10:46:00.968Z,2.80
2023-03-17T10:48:28.722Z,2.90
2023-03-17T10:50:57.736Z,4.40
2023-03-17T10:53:27.956Z,4.60
2023-03-17T10:56:25.486Z,3.80
2023-03-17T10:58:54.398Z,3.50
2023-03-17T11:01:39.761Z,6.60
2023-03-17T11:04:33.717Z,4.90
2023-03-17T11:07:12.298Z,3.70
2023-03-17T11:09:38.984Z,4.80
2023-03-17T11:12:32.173Z,6.10
2023-03-17T11:15:09.571Z,4.90
2023-03-17T11:17:40.754Z,8.40
2023-03-17T11:20:41.678Z,4.70
2023-03-17T11:23:21.785Z,4.20
2023-03-17T11:26:04.753Z,4.50
2023-03-17T11:28:35.541Z,3.40
2023-03-17T11:31:09.943Z,4.90
2023-03-17T11:34:01.885Z,3.60
2023-03-17T11:36:35.584Z,3.90
2023-03-17T11:39:27.816Z,4.90
2023-03-17T11:42:42.414Z,4.00
2023-03-17T11:45:12.686Z,4.20
2023-03-17T11:48:07.675Z,3.60
2023-03-17T11:50:38.820Z,4.40
2023-03-17T11:53:31.165Z,3.80
2023-03-17T11:56:06.661Z,4.40
2023-03-17T11:58:47.770Z,4.00
2023-03-17T12:01:17.693Z,3.60
2023-03-17T12:03:49.624Z,3.30
2023-03-17T12:06:34.428Z,3.60
2023-03-17T12:09:10.615Z,7.10
2023-03-17T12:11:39.995Z,5.80
2023-03-17T12:14:31.953Z,3.50
2023-03-17T12:17:04.709Z,5.20
2023-03-17T12:20:09.978Z,4.20
2023-03-17T12:23:10.501Z,4.10
2023-03-17T12:25:51.380Z,3.20
2023-03-17T12:28:22.469Z,4.10
2023-03-17T12:31:04.018Z,5.60
2023-03-17T12:33:46.502Z,4.80
2023-03-17T12:36:14.815Z,3.80
2023-03-17T12:38:44.794Z,3.80
2023-03-17T12:41:56.172Z,3.10
2023-03-17T12:44:45.423Z,4.20
2023-03-17T12:47:42.907Z,3.70
2023-03-17T12:51:05.430Z,3.80
2023-03-17T12:53:35.113Z,3.40
2023-03-17T12:56:21.625Z,5.80
2023-03-17T12:58:50.550Z,4.40
2023-03-17T13:01:37.470Z,5.10
2023-03-17T13:04:26.552Z,3.20
2023-03-17T13:06:57.710Z,3.50
2023-03-17T13:09:31.848Z,5.50
2023-03-17T13:14:42.705Z,3.40
2023-03-17T13:17:11.910Z,3.30
2023-03-17T13:19:48.088Z,2.90
2023-03-17T13:22:21.166Z,4.90
2023-03-17T13:24:53.270Z,5.80
2023-03-17T13:27:29.424Z,4.20
2023-03-17T13:30:21.819Z,4.20
2023-03-17T13:32:56.669Z,3.80
2023-03-17T13:35:47.278Z,6.70
2023-03-17T13:38:36.755Z,4.20
2023-03-17T13:41:06.286Z,7.00
2023-03-17T13:43:49.744Z,6.00
2023-03-17T13:46:33.366Z,5.10
2023-03-17T13:49:19.376Z,6.50
2023-03-17T13:52:00.399Z,6.60
2023-03-17T13:54:30.420Z,5.60
2023-03-17T13:57:26.009Z,8.60
2023-03-17T14:00:21.154Z,5.50
2023-03-17T14:02:49.872Z,5.30
2023-03-17T14:05:24.073Z,5.20
2023-03-17T14:08:00.664Z,6.50
2023-03-17T14:10:31.439Z,5.20
2023-03-17T14:13:31.009Z,6.50
2023-03-17T14:16:20.272Z,5.30
2023-03-17T14:18:58.678Z,5.50
2023-03-17T14:21:35.541Z,5.50
2023-03-17T14:24:17.753Z,5.70
2023-03-17T14:26:47.719Z,6.60
2023-03-17T14:29:15.216Z,9.10
2023-03-17T14:31:49.191Z,5.10
2023-03-17T14:34:17.010Z,6.80
2023-03-17T14:36:44.349Z,6.50
2023-03-17T14:39:22.615Z,6.00
2023-03-17T14:42:01.092Z,5.60
2023-03-17T14:44:34.834Z,7.40
2023-03-17T14:47:10.693Z,5.50
2023-03-17T14:49:39.354Z,6.50
2023-03-17T14:52:26.459Z,6.20
2023-03-17T14:54:54.919Z,4.40
2023-03-17T14:57:26.598Z,5.70
2023-03-17T15:00:22.033Z,4.70
2023-03-17T15:02:59.556Z,4.80
2023-03-17T15:05:37.680Z,9.10
2023-03-17T15:08:36.083Z,6.40
2023-03-17T15:11:04.341Z,6.30
2023-03-17T15:13:34.248Z,5.90
2023-03-17T15:16:15.957Z,4.40
2023-03-17T15:18:44.219Z,5.60
2023-03-17T15:21:34.483Z,6.30
2023-03-17T15:24:27.106Z,5.60
2023-03-17T15:27:20.726Z,5.00
2023-03-17T15:29:50.345Z,4.90
2023-03-17T15:32:20.274Z,9.10
2023-03-17T15:34:48.227Z,6.80
2023-03-17T15:37:23.633Z,7.00
2023-03-17T15:39:52.521Z,5.90
2023-03-17T15:42:21.198Z,6.20
2023-03-17T15:44:48.154Z,7.00
2023-03-17T15:47:16.756Z,8.40
2023-03-17T15:49:44.714Z,5.70
2023-03-17T15:52:24.770Z,6.20
2023-03-17T15:54:58.656Z,8.00
2023-03-17T15:57:26.634Z,4.90
2023-03-17T15:59:55.405Z,8.30
2023-03-17T16:02:33.285Z,5.30
2023-03-17T16:05:01.777Z,6.50
2023-03-17T16:07:30.295Z,5.90
2023-03-17T16:09:57.069Z,7.70
2023-03-17T16:12:24.837Z,7.20
2023-03-17T16:14:54.720Z,8.20
2023-03-17T16:17:28.874Z,7.80
2023-03-17T16:19:56.270Z,7.30
2023-03-17T16:22:39.089Z,8.00
2023-03-17T16:25:29.596Z,6.60
2023-03-17T16:27:59.396Z,6.70
2023-03-17T16:30:31.495Z,7.70
2023-03-17T16:33:11.796Z,8.70
2023-03-17T16:35:41.501Z,11.30
2023-03-17T16:38:11.488Z,7.50
2023-03-17T16:40:42.321Z,9.40
2023-03-17T16:43:32.342Z,10.50
2023-03-17T16:46:00.585Z,15.80
2023-03-17T16:48:30.500Z,16.90
2023-03-17T16:50:57.870Z,19.20
2023-03-17T16:53:24.976Z,19.70
2023-03-17T16:55:53.036Z,19.90
2023-03-17T16:58:25.950Z,16.40
2023-03-17T17:00:58.388Z,18.70
2023-03-17T17:03:26.109Z,21.10
2023-03-17T17:05:54.856Z,17.00
2023-03-17T17:08:22.257Z,17.80
2023-03-17T17:10:49.680Z,18.20
2023-03-17T17:13:17.688Z,20.20
2023-03-17T17:15:44.370Z,13.80
2023-03-17T17:18:16.101Z,15.70
2023-03-17T17:20:49.344Z,14.20
2023-03-17T17:23:21.386Z,11.90
2023-03-17T17:25:49.913Z,11.30
2023-03-17T17:28:22.133Z,10.90
2023-03-17T17:30:52.431Z,11.20
2023-03-17T17:33:26.289Z,9.10
2023-03-17T17:35:53.820Z,7.20
2023-03-17T17:38:28.079Z,7.20
2023-03-17T17:40:56.590Z,6.70
2023-03-17T17:43:24.350Z,8.80
2023-03-17T17:45:55.356Z,8.00
2023-03-17T17:48:23.802Z,6.20
2023-03-17T17:50:51.142Z,9.10
2023-03-17T17:53:18.896Z,5.50
2023-03-17T17:55:47.805Z,7.80
2023-03-17T17:58:17.750Z,6.00
2023-03-17T18:00:44.956Z,9.90
2023-03-17T18:03:11.590Z,7.90
2023-03-17T18:05:39.792Z,7.20
2023-03-17T18:08:06.774Z,7.00
2023-03-17T18:10:38.210Z,6.60
2023-03-17T18:13:05.060Z,6.10
2023-03-17T18:15:31.896Z,8.40
2023-03-17T18:18:03.740Z,7.80
2023-03-17T18:20:31.399Z,8.10
2023-03-17T18:22:58.472Z,11.40
2023-03-17T18:25:26.611Z,11.60
2023-03-17T18:27:55.808Z,8.30
2023-03-17T18:30:28.130Z,6.10
2023-03-17T18:32:57.880Z,7.00
2023-03-17T18:35:25.503Z,5.20
2023-03-17T18:37:53.284Z,9.40
2023-03-17T18:40:20.646Z,7.20
2023-03-17T18:42:47.426Z,7.20
2023-03-17T18:45:16.429Z,8.40
2023-03-17T18:47:44.623Z,6.70
2023-03-17T18:50:14.939Z,8.30
2023-03-17T18:52:43.427Z,7.30
2023-03-17T18:55:11.990Z,9.90
2023-03-17T18:57:39.217Z,9.70
2023-03-17T19:00:07.953Z,9.70
2023-03-17T19:02:38.749Z,8.50
2023-03-17T19:05:06.994Z,11.00
2023-03-17T19:07:35.041Z,9.90
2023-03-17T19:10:04.021Z,10.70
2023-03-17T19:12:31.380Z,9.90
2023-03-17T19:14:59.556Z,8.00
2023-03-17T19:17:28.154Z,9.60
2023-03-17T19:19:55.207Z,8.90
2023-03-17T19:22:23.190Z,11.00
2023-03-17T19:24:50.317Z,9.20
2023-03-17T19:27:17.531Z,12.70
2023-03-17T19:29:48.680Z,10.30
2023-03-17T19:32:16.618Z,12.30
2023-03-17T19:34:43.366Z,11.70
2023-03-17T19:37:10.488Z,12.90
2023-03-17T19:39:44.341Z,12.90
2023-03-17T19:42:12.058Z,10.90
2023-03-17T19:44:40.135Z,11.60
2023-03-17T19:47:12.319Z,7.90
2023-03-17T19:49:39.571Z,9.00
2023-03-17T19:52:07.687Z,9.10
2023-03-17T19:54:37.672Z,9.40
2023-03-17T19:57:05.303Z,8.60
2023-03-17T19:59:32.888Z,7.40
2023-03-17T20:02:00.302Z,8.70
2023-03-17T20:04:27.304Z,7.00
2023-03-17T20:06:57.340Z,9.00
2023-03-17T20:09:26.498Z,6.60
2023-03-17T20:12:38.308Z,9.80
2023-03-17T20:15:07.842Z,7.90
2023-03-17T20:17:36.867Z,10.00
2023-03-17T20:20:10.783Z,10.90
2023-03-17T20:22:40.422Z,14.70
2023-03-17T20:25:10.394Z,9.70
2023-03-17T20:27:40.481Z,11.30
2023-03-17T20:30:12.415Z,8.20
2023-03-17T20:32:40.702Z,9.90
2023-03-17T20:35:09.711Z,10.70
2023-03-17T20:37:38.835Z,9.70
2023-03-17T20:40:13.837Z,8.30
2023-03-17T20:42:42.392Z,11.30
2023-03-17T20:45:10.431Z,9.60
2023-03-17T20:47:41.628Z,12.00
2023-03-17T20:50:10.244Z,11.30
2023-03-17T20:52:39.853Z,9.90
2023-03-17T20:55:09.597Z,15.10
2023-03-17T20:57:38.156Z,18.40
2023-03-17T21:00:10.429Z,13.60
2023-03-17T21:02:39.040Z,16.20
2023-03-17T21:05:08.501Z,12.10
2023-03-17T21:07:37.496Z,11.40
2023-03-17T21:10:06.155Z,10.70
2023-03-17T21:12:34.390Z,13.80
2023-03-17T21:15:03.800Z,10.30
2023-03-17T21:17:32.974Z,12.10
2023-03-17T21:20:03.406Z,11.90
2023-03-17T21:22:34.524Z,10.60
2023-03-17T21:25:05.424Z,9.80
2023-03-17T21:27:37.095Z,14.10
2023-03-17T21:30:12.376Z,9.60
2023-03-17T21:32:45.113Z,13.20
2023-03-17T21:35:13.590Z,10.80
2023-03-17T21:37:41.807Z,12.50
2023-03-17T21:40:12.800Z,12.60
2023-03-17T21:42:42.024Z,11.70
2023-03-17T21:45:10.802Z,15.00
2023-03-17T21:47:41.945Z,11.60
2023-03-17T21:50:11.183Z,11.50
2023-03-17T21:52:41.134Z,9.80
2023-03-17T21:55:10.424Z,11.90
2023-03-17T21:57:40.295Z,10.80
2023-03-17T22:00:09.759Z,16.50
2023-03-17T22:02:46.325Z,12.40
2023-03-17T22:05:14.569Z,13.30
2023-03-17T22:07:43.895Z,11.90
2023-03-17T22:10:11.994Z,14.90
2023-03-17T22:12:40.321Z,12.80
2023-03-17T22:15:10.497Z,14.90
2023-03-17T22:17:39.816Z,12.20
2023-03-17T22:20:09.224Z,13.00
2023-03-17T22:22:38.589Z,10.40
2023-03-17T22:25:07.403Z,13.00
2023-03-17T22:27:35.757Z,11.40
2023-03-17T22:30:06.786Z,10.50
2023-03-17T22:32:36.166Z,10.70
2023-03-17T22:35:08.884Z,10.70
2023-03-17T22:37:36.839Z,10.60
2023-03-17T22:40:06.500Z,12.30
2023-03-17T22:42:37.369Z,11.20
2023-03-17T22:45:06.432Z,11.10
2023-03-17T22:47:35.057Z,10.90
2023-03-17T22:50:03.127Z,11.80
2023-03-17T22:52:32.926Z,11.50
2023-03-17T22:55:02.673Z,12.30
2023-03-17T22:57:30.975Z,13.00
2023-03-17T22:59:59.283Z,15.20
2023-03-17T23:02:27.430Z,12.80
2023-03-17T23:04:55.415Z,10.10
2023-03-17T23:07:24.366Z,11.30
2023-03-17T23:09:52.304Z,11.70
2023-03-17T23:12:24.630Z,11.30
2023-03-17T23:14:53.219Z,12.40
2023-03-17T23:17:21.879Z,11.50
2023-03-17T23:19:49.954Z,13.10
2023-03-17T23:22:18.316Z,11.80
2023-03-17T23:24:47.321Z,11.30
2023-03-17T23:27:15.760Z,13.20
2023-03-17T23:29:44.822Z,12.00
2023-03-17T23:32:15.616Z,12.10
2023-03-17T23:34:45.088Z,13.30
2023-03-17T23:37:13.145Z,11.30
2023-03-17T23:39:41.837Z,14.30
2023-03-17T23:42:11.323Z,10.40
2023-03-17T23:44:41.893Z,11.80
2023-03-17T23:47:10.604Z,11.30
2023-03-17T23:49:39.201Z,13.20
2023-03-17T23:52:09.242Z,11.90
2023-03-17T23:54:38.847Z,13.00
2023-03-17T23:57:08.092Z,12.90
2023-03-17T23:59:36.165Z,12.40
